Terminal Aerodrome Forecast
Issued by NWS Cleveland, OH

Home | Current Version | Previous Version | Graphics & Text | Print | Product List | Glossary On
Versions: 1 2 3 4 5 6 7 8 9 10 11 12 13 14 15
000
FTUS41 KCLE 250537
TAFERI
TAF
KERI 250537Z 2506/2606 33011KT P6SM SCT018 OVC035
      TEMPO 2506/2510 BKN018
     FM251000 02010KT P6SM BKN015 OVC030
     FM251900 02010KT P6SM BKN035
     FM252100 02010KT P6SM SCT035
     FM260100 06006KT P6SM FEW040
     FM260500 12006KT P6SM FEW250=

USA.gov is the U.S. government's official web portal to all federal, state and local government web resources and services.